sensor_id;sensor_type;location;lat;lon;timestamp;pressure;altitude;pressure_sealevel;temperature;humidity
29121;BME280;16191;49.548;8.658;2023-06-14T00:01:41;99965.19;;;19.26;43.11
29121;BME280;16191;49.548;8.658;2023-06-14T00:04:07;99971.69;;;19.22;43.54
29121;BME280;16191;49.548;8.658;2023-06-14T00:06:35;99971.09;;;19.18;43.30
29121;BME280;16191;49.548;8.658;2023-06-14T00:09:02;99960.63;;;19.16;43.52
29121;BME280;16191;49.548;8.658;2023-06-14T00:11:29;99961.09;;;19.10;43.44
29121;BME280;16191;49.548;8.658;2023-06-14T00:13:57;99959.31;;;19.11;43.60
29121;BME280;16191;49.548;8.658;2023-06-14T00:16:23;99961.47;;;19.17;43.55
29121;BME280;16191;49.548;8.658;2023-06-14T00:18:50;99960.16;;;19.11;43.64
29121;BME280;16191;49.548;8.658;2023-06-14T00:21:20;99953.88;;;19.12;43.57
29121;BME280;16191;49.548;8.658;2023-06-14T00:23:47;99959.44;;;19.09;43.63
29121;BME280;16191;49.548;8.658;2023-06-14T00:26:13;99961.22;;;19.09;43.85
29121;BME280;16191;49.548;8.658;2023-06-14T00:28:43;99956.34;;;19.04;43.54
29121;BME280;16191;49.548;8.658;2023-06-14T00:31:09;99948.03;;;18.98;43.97
29121;BME280;16191;49.548;8.658;2023-06-14T00:33:36;99951.28;;;19.01;43.94
29121;BME280;16191;49.548;8.658;2023-06-14T00:36:04;99946.25;;;18.98;43.88
29121;BME280;16191;49.548;8.658;2023-06-14T00:38:30;99948.28;;;18.95;43.92
29121;BME280;16191;49.548;8.658;2023-06-14T00:40:57;99946.84;;;19.02;43.91
29121;BME280;16191;49.548;8.658;2023-06-14T00:43:23;99949.50;;;18.91;43.93
29121;BME280;16191;49.548;8.658;2023-06-14T00:45:50;99948.53;;;18.92;43.98
29121;BME280;16191;49.548;8.658;2023-06-14T00:48:17;99950.34;;;18.91;44.18
29121;BME280;16191;49.548;8.658;2023-06-14T00:50:45;99947.81;;;18.90;44.17
29121;BME280;16191;49.548;8.658;2023-06-14T00:53:12;99943.34;;;18.90;44.45
29121;BME280;16191;49.548;8.658;2023-06-14T00:55:41;99948.44;;;18.82;44.39
29121;BME280;16191;49.548;8.658;2023-06-14T00:58:08;99949.53;;;18.79;44.57
29121;BME280;16191;49.548;8.658;2023-06-14T01:00:35;99944.69;;;18.84;44.36
29121;BME280;16191;49.548;8.658;2023-06-14T01:03:02;99944.69;;;18.84;44.32
29121;BME280;16191;49.548;8.658;2023-06-14T01:05:30;99943.84;;;18.84;44.41
29121;BME280;16191;49.548;8.658;2023-06-14T01:08:09;99943.25;;;18.92;44.36
29121;BME280;16191;49.548;8.658;2023-06-14T01:13:46;99948.25;;;19.06;44.09
29121;BME280;16191;49.548;8.658;2023-06-14T01:16:13;99957.41;;;19.02;43.95
29121;BME280;16191;49.548;8.658;2023-06-14T01:18:41;99954.78;;;19.02;43.63
29121;BME280;16191;49.548;8.658;2023-06-14T01:21:20;99953.81;;;19.03;43.76
29121;BME280;16191;49.548;8.658;2023-06-14T01:23:48;99954.91;;;19.00;43.84
29121;BME280;16191;49.548;8.658;2023-06-14T01:26:22;99948.88;;;18.98;43.92
29121;BME280;16191;49.548;8.658;2023-06-14T01:28:51;99952.50;;;18.97;43.92
29121;BME280;16191;49.548;8.658;2023-06-14T01:31:22;99953.34;;;18.98;43.94
29121;BME280;16191;49.548;8.658;2023-06-14T01:33:50;99945.16;;;18.90;43.95
29121;BME280;16191;49.548;8.658;2023-06-14T01:36:22;99949.53;;;18.79;44.46
29121;BME280;16191;49.548;8.658;2023-06-14T01:38:49;99953.72;;;18.82;44.10
29121;BME280;16191;49.548;8.658;2023-06-14T01:41:20;99949.75;;;18.76;44.50
29121;BME280;16191;49.548;8.658;2023-06-14T01:43:48;99946.88;;;18.79;44.36
29121;BME280;16191;49.548;8.658;2023-06-14T01:46:16;99948.56;;;18.69;44.61
29121;BME280;16191;49.548;8.658;2023-06-14T01:49:03;99950.25;;;18.70;44.58
29121;BME280;16191;49.548;8.658;2023-06-14T01:51:52;99958.03;;;18.72;44.57
29121;BME280;16191;49.548;8.658;2023-06-14T01:54:39;99956.59;;;18.68;44.82
29121;BME280;16191;49.548;8.658;2023-06-14T01:57:28;99961.56;;;18.61;44.60
29121;BME280;16191;49.548;8.658;2023-06-14T02:00:16;99958.75;;;18.63;44.61
29121;BME280;16191;49.548;8.658;2023-06-14T02:03:04;99963.69;;;18.56;44.89
29121;BME280;16191;49.548;8.658;2023-06-14T02:05:31;99963.56;;;18.58;45.03
29121;BME280;16191;49.548;8.658;2023-06-14T02:07:58;99966.44;;;18.55;45.06
29121;BME280;16191;49.548;8.658;2023-06-14T02:10:24;99962.22;;;18.52;44.93
29121;BME280;16191;49.548;8.658;2023-06-14T02:12:54;99960.44;;;18.53;45.13
29121;BME280;16191;49.548;8.658;2023-06-14T02:15:20;99965.34;;;18.57;44.98
29121;BME280;16191;49.548;8.658;2023-06-14T02:17:48;99962.00;;;18.55;45.23
29121;BME280;16191;49.548;8.658;2023-06-14T02:20:16;99957.91;;;18.40;45.44
29121;BME280;16191;49.548;8.658;2023-06-14T02:22:44;99966.53;;;18.42;45.32
29121;BME280;16191;49.548;8.658;2023-06-14T02:25:11;99968.94;;;18.34;45.82
29121;BME280;16191;49.548;8.658;2023-06-14T02:27:39;99966.31;;;18.34;45.82
29121;BME280;16191;49.548;8.658;2023-06-14T02:30:07;99962.81;;;18.33;45.87
29121;BME280;16191;49.548;8.658;2023-06-14T02:32:33;99971.69;;;18.32;46.22
29121;BME280;16191;49.548;8.658;2023-06-14T02:35:02;99964.50;;;18.34;45.71
29121;BME280;16191;49.548;8.658;2023-06-14T02:37:30;99975.41;;;18.30;46.12
29121;BME280;16191;49.548;8.658;2023-06-14T02:39:56;99972.88;;;18.28;46.20
29121;BME280;16191;49.548;8.658;2023-06-14T02:42:23;99973.25;;;18.24;46.20
29121;BME280;16191;49.548;8.658;2023-06-14T02:44:50;99965.19;;;18.14;46.37
29121;BME280;16191;49.548;8.658;2023-06-14T02:47:18;99964.69;;;18.20;46.48
29121;BME280;16191;49.548;8.658;2023-06-14T02:49:45;99966.16;;;18.13;46.47
29121;BME280;16191;49.548;8.658;2023-06-14T02:52:15;99968.41;;;18.06;46.68
29121;BME280;16191;49.548;8.658;2023-06-14T02:54:41;99968.63;;;18.03;46.95
29121;BME280;16191;49.548;8.658;2023-06-14T02:57:09;99969.97;;;18.09;46.45
29121;BME280;16191;49.548;8.658;2023-06-14T02:59:38;99966.59;;;17.96;47.61
29121;BME280;16191;49.548;8.658;2023-06-14T03:02:05;99970.31;;;17.93;47.41
29121;BME280;16191;49.548;8.658;2023-06-14T03:04:33;99963.81;;;17.86;47.42
29121;BME280;16191;49.548;8.658;2023-06-14T03:07:08;99974.25;;;17.88;47.52
29121;BME280;16191;49.548;8.658;2023-06-14T03:09:41;99968.25;;;17.86;47.49
29121;BME280;16191;49.548;8.658;2023-06-14T03:12:10;99969.41;;;17.81;47.82
29121;BME280;16191;49.548;8.658;2023-06-14T03:14:38;99977.13;;;17.85;48.03
29121;BME280;16191;49.548;8.658;2023-06-14T03:17:06;99974.69;;;17.81;47.69
29121;BME280;16191;49.548;8.658;2023-06-14T03:19:35;99992.94;;;17.85;47.89
29121;BME280;16191;49.548;8.658;2023-06-14T03:22:03;99995.94;;;17.80;48.32
29121;BME280;16191;49.548;8.658;2023-06-14T03:24:32;99996.88;;;17.79;47.95
29121;BME280;16191;49.548;8.658;2023-06-14T03:27:08;100005.47;;;17.94;47.66
29121;BME280;16191;49.548;8.658;2023-06-14T03:29:39;99993.22;;;17.93;47.75
29121;BME280;16191;49.548;8.658;2023-06-14T03:32:07;100006.47;;;17.80;47.79
29121;BME280;16191;49.548;8.658;2023-06-14T03:34:40;100004.25;;;17.87;47.80
29121;BME280;16191;49.548;8.658;2023-06-14T03:37:11;100011.88;;;17.78;48.16
29121;BME280;16191;49.548;8.658;2023-06-14T03:39:37;100010.69;;;17.83;48.20
29121;BME280;16191;49.548;8.658;2023-06-14T03:42:05;100018.22;;;17.76;47.98
29121;BME280;16191;49.548;8.658;2023-06-14T03:44:32;100023.28;;;17.79;47.94
29121;BME280;16191;49.548;8.658;2023-06-14T03:46:59;100022.50;;;17.66;48.43
29121;BME280;16191;49.548;8.658;2023-06-14T03:49:27;100021.56;;;17.67;48.53
29121;BME280;16191;49.548;8.658;2023-06-14T03:51:54;100020.81;;;17.65;48.86
29121;BME280;16191;49.548;8.658;2023-06-14T03:54:23;100032.97;;;17.55;49.53
29121;BME280;16191;49.548;8.658;2023-06-14T03:56:53;100031.63;;;17.49;49.68
29121;BME280;16191;49.548;8.658;2023-06-14T03:59:20;100035.75;;;17.53;49.72
29121;BME280;16191;49.548;8.658;2023-06-14T04:01:47;100039.03;;;17.44;50.46
29121;BME280;16191;49.548;8.658;2023-06-14T04:04:16;100038.41;;;17.40;50.53
29121;BME280;16191;49.548;8.658;2023-06-14T04:06:45;100040.53;;;17.35;50.88
29121;BME280;16191;49.548;8.658;2023-06-14T04:09:15;100042.94;;;17.38;51.20
29121;BME280;16191;49.548;8.658;2023-06-14T04:11:41;100042.50;;;17.44;50.62
29121;BME280;16191;49.548;8.658;2023-06-14T04:14:08;100046.22;;;17.42;51.19
29121;BME280;16191;49.548;8.658;2023-06-14T04:16:35;100047.16;;;17.41;51.45
29121;BME280;16191;49.548;8.658;2023-06-14T04:19:02;100048.31;;;17.50;50.76
29121;BME280;16191;49.548;8.658;2023-06-14T04:21:28;100055.91;;;17.41;51.49
29121;BME280;16191;49.548;8.658;2023-06-14T04:23:58;100058.44;;;17.43;51.70
29121;BME280;16191;49.548;8.658;2023-06-14T04:26:29;100063.28;;;17.49;51.73
29121;BME280;16191;49.548;8.658;2023-06-14T04:28:56;100059.91;;;17.47;51.86
29121;BME280;16191;49.548;8.658;2023-06-14T04:31:29;100066.19;;;17.57;51.35
29121;BME280;16191;49.548;8.658;2023-06-14T04:34:01;100069.63;;;17.46;52.38
29121;BME280;16191;49.548;8.658;2023-06-14T04:36:35;100068.00;;;17.57;52.08
29121;BME280;16191;49.548;8.658;2023-06-14T04:39:05;100071.09;;;17.51;52.79
29121;BME280;16191;49.548;8.658;2023-06-14T04:41:32;100074.94;;;17.58;52.46
29121;BME280;16191;49.548;8.658;2023-06-14T04:44:00;100074.63;;;17.62;52.53
29121;BME280;16191;49.548;8.658;2023-06-14T04:46:31;100070.41;;;17.60;52.50
29121;BME280;16191;49.548;8.658;2023-06-14T04:48:59;100071.16;;;17.62;52.99
29121;BME280;16191;49.548;8.658;2023-06-14T04:51:28;100075.06;;;17.69;52.67
29121;BME280;16191;49.548;8.658;2023-06-14T04:54:00;100073.50;;;17.66;52.92
29121;BME280;16191;49.548;8.658;2023-06-14T04:56:28;100083.09;;;17.67;52.58
29121;BME280;16191;49.548;8.658;2023-06-14T04:58:56;100075.06;;;17.93;53.05
29121;BME280;16191;49.548;8.658;2023-06-14T05:01:23;100082.81;;;17.83;53.19
29121;BME280;16191;49.548;8.658;2023-06-14T05:03:51;100076.25;;;17.89;53.53
29121;BME280;16191;49.548;8.658;2023-06-14T05:06:17;100078.03;;;17.88;53.42
29121;BME280;16191;49.548;8.658;2023-06-14T05:08:44;100074.84;;;17.96;53.20
29121;BME280;16191;49.548;8.658;2023-06-14T05:11:12;100084.56;;;17.95;53.16
29121;BME280;16191;49.548;8.658;2023-06-14T05:13:39;100076.66;;;18.06;52.65
29121;BME280;16191;49.548;8.658;2023-06-14T05:16:09;100075.94;;;18.04;52.98
29121;BME280;16191;49.548;8.658;2023-06-14T05:18:37;100081.06;;;18.19;53.22
29121;BME280;16191;49.548;8.658;2023-06-14T05:21:04;100077.28;;;18.10;52.51
29121;BME280;16191;49.548;8.658;2023-06-14T05:23:32;100080.78;;;18.22;52.63
29121;BME280;16191;49.548;8.658;2023-06-14T05:25:59;100076.25;;;18.24;52.46
29121;BME280;16191;49.548;8.658;2023-06-14T05:28:25;100084.06;;;18.25;52.72
29121;BME280;16191;49.548;8.658;2023-06-14T05:30:52;100075.22;;;18.37;52.76
29121;BME280;16191;49.548;8.658;2023-06-14T05:33:19;100071.25;;;18.43;52.50
29121;BME280;16191;49.548;8.658;2023-06-14T05:35:46;100074.50;;;18.46;52.13
29121;BME280;16191;49.548;8.658;2023-06-14T05:38:13;100075.47;;;18.45;51.57
29121;BME280;16191;49.548;8.658;2023-06-14T05:40:39;100074.63;;;18.45;51.26
29121;BME280;16191;49.548;8.658;2023-06-14T05:43:06;100083.88;;;18.50;51.67
29121;BME280;16191;49.548;8.658;2023-06-14T05:45:33;100070.44;;;18.54;51.45
29121;BME280;16191;49.548;8.658;2023-06-14T05:47:59;100069.94;;;18.48;51.05
29121;BME280;16191;49.548;8.658;2023-06-14T05:50:26;100077.53;;;18.53;51.13
29121;BME280;16191;49.548;8.658;2023-06-14T05:52:53;100077.31;;;18.56;50.89
29121;BME280;16191;49.548;8.658;2023-06-14T05:55:20;100079.38;;;18.64;50.98
29121;BME280;16191;49.548;8.658;2023-06-14T05:57:47;100085.41;;;18.77;51.51
29121;BME280;16191;49.548;8.658;2023-06-14T06:00:15;100084.34;;;18.79;51.08
29121;BME280;16191;49.548;8.658;2023-06-14T06:02:43;100081.47;;;18.82;51.49
29121;BME280;16191;49.548;8.658;2023-06-14T06:05:11;100086.13;;;18.90;51.13
29121;BME280;16191;49.548;8.658;2023-06-14T06:07:38;100099.00;;;18.95;51.19
29121;BME280;16191;49.548;8.658;2023-06-14T06:10:10;100096.97;;;18.98;50.98
29121;BME280;16191;49.548;8.658;2023-06-14T06:12:37;100099.25;;;19.14;51.09
29121;BME280;16191;49.548;8.658;2023-06-14T06:15:04;100096.59;;;19.14;50.22
29121;BME280;16191;49.548;8.658;2023-06-14T06:17:31;100098.03;;;19.18;50.75
29121;BME280;16191;49.548;8.658;2023-06-14T06:20:16;100094.41;;;19.30;50.38
29121;BME280;16191;49.548;8.658;2023-06-14T06:22:43;100110.88;;;19.34;49.80
29121;BME280;16191;49.548;8.658;2023-06-14T06:25:10;100112.47;;;19.47;50.11
29121;BME280;16191;49.548;8.658;2023-06-14T06:27:37;100114.16;;;19.60;49.82
29121;BME280;16191;49.548;8.658;2023-06-14T06:30:04;100123.47;;;19.75;49.31
29121;BME280;16191;49.548;8.658;2023-06-14T06:32:32;100116.66;;;19.61;48.96
29121;BME280;16191;49.548;8.658;2023-06-14T06:34:58;100114.75;;;19.63;49.29
29121;BME280;16191;49.548;8.658;2023-06-14T06:37:26;100116.31;;;19.66;48.92
29121;BME280;16191;49.548;8.658;2023-06-14T06:39:53;100122.25;;;19.90;48.72
29121;BME280;16191;49.548;8.658;2023-06-14T06:42:19;100108.72;;;20.04;48.37
29121;BME280;16191;49.548;8.658;2023-06-14T06:44:49;100117.25;;;20.08;47.88
29121;BME280;16191;49.548;8.658;2023-06-14T06:47:15;100120.03;;;20.06;47.97
29121;BME280;16191;49.548;8.658;2023-06-14T06:49:42;100117.56;;;20.14;47.76
29121;BME280;16191;49.548;8.658;2023-06-14T06:52:09;100125.25;;;20.29;47.81
29121;BME280;16191;49.548;8.658;2023-06-14T06:54:35;100132.59;;;20.25;47.04
29121;BME280;16191;49.548;8.658;2023-06-14T06:57:02;100130.53;;;20.29;47.15
29121;BME280;16191;49.548;8.658;2023-06-14T06:59:29;100130.78;;;20.58;47.33
29121;BME280;16191;49.548;8.658;2023-06-14T07:01:56;100134.13;;;20.60;46.53
29121;BME280;16191;49.548;8.658;2023-06-14T07:04:23;100134.69;;;20.53;46.43
29121;BME280;16191;49.548;8.658;2023-06-14T07:06:50;100141.53;;;20.56;46.01
29121;BME280;16191;49.548;8.658;2023-06-14T07:09:17;100136.34;;;20.75;45.91
29121;BME280;16191;49.548;8.658;2023-06-14T07:11:44;100136.22;;;20.77;46.06
29121;BME280;16191;49.548;8.658;2023-06-14T07:14:11;100135.81;;;20.81;45.81
29121;BME280;16191;49.548;8.658;2023-06-14T07:16:38;100145.28;;;21.26;46.05
29121;BME280;16191;49.548;8.658;2023-06-14T07:19:05;100150.91;;;21.32;45.84
29121;BME280;16191;49.548;8.658;2023-06-14T07:21:31;100147.69;;;21.08;44.67
29121;BME280;16191;49.548;8.658;2023-06-14T07:23:58;100145.72;;;21.21;45.17
29121;BME280;16191;49.548;8.658;2023-06-14T07:26:25;100152.19;;;21.38;44.56
29121;BME280;16191;49.548;8.658;2023-06-14T07:28:52;100152.78;;;21.41;44.57
29121;BME280;16191;49.548;8.658;2023-06-14T07:31:19;100155.63;;;21.59;44.49
29121;BME280;16191;49.548;8.658;2023-06-14T07:33:45;100154.09;;;21.57;44.06
29121;BME280;16191;49.548;8.658;2023-06-14T07:36:12;100154.53;;;21.71;44.11
29121;BME280;16191;49.548;8.658;2023-06-14T07:38:39;100155.53;;;21.80;43.73
29121;BME280;16191;49.548;8.658;2023-06-14T07:41:07;100162.00;;;21.97;43.94
29121;BME280;16191;49.548;8.658;2023-06-14T07:43:34;100165.38;;;21.99;43.29
29121;BME280;16191;49.548;8.658;2023-06-14T07:46:01;100163.44;;;22.10;43.19
29121;BME280;16191;49.548;8.658;2023-06-14T07:48:33;100171.16;;;22.04;42.93
29121;BME280;16191;49.548;8.658;2023-06-14T07:51:00;100167.38;;;22.35;43.60
29121;BME280;16191;49.548;8.658;2023-06-14T07:53:28;100171.00;;;22.34;42.73
29121;BME280;16191;49.548;8.658;2023-06-14T07:55:54;100173.66;;;22.34;42.47
29121;BME280;16191;49.548;8.658;2023-06-14T07:58:21;100179.97;;;22.33;42.88
29121;BME280;16191;49.548;8.658;2023-06-14T08:00:48;100179.81;;;22.54;42.55
29121;BME280;16191;49.548;8.658;2023-06-14T08:03:15;100175.78;;;22.69;42.24
29121;BME280;16191;49.548;8.658;2023-06-14T08:05:42;100172.84;;;22.72;41.75
29121;BME280;16191;49.548;8.658;2023-06-14T08:08:08;100177.84;;;22.75;41.49
29121;BME280;16191;49.548;8.658;2023-06-14T08:10:35;100176.34;;;22.92;41.08
29121;BME280;16191;49.548;8.658;2023-06-14T08:13:02;100174.63;;;23.01;41.33
29121;BME280;16191;49.548;8.658;2023-06-14T08:15:28;100181.06;;;22.98;40.93
29121;BME280;16191;49.548;8.658;2023-06-14T08:17:55;100180.13;;;22.89;41.35
29121;BME280;16191;49.548;8.658;2023-06-14T08:20:22;100183.59;;;23.00;41.17
29121;BME280;16191;49.548;8.658;2023-06-14T08:22:49;100185.09;;;23.12;40.48
29121;BME280;16191;49.548;8.658;2023-06-14T08:25:16;100191.13;;;23.14;39.91
29121;BME280;16191;49.548;8.658;2023-06-14T08:27:43;100182.81;;;23.27;40.02
29121;BME280;16191;49.548;8.658;2023-06-14T08:30:10;100185.75;;;23.23;40.22
29121;BME280;16191;49.548;8.658;2023-06-14T08:32:37;100186.78;;;23.50;39.54
29121;BME280;16191;49.548;8.658;2023-06-14T08:35:04;100191.09;;;23.61;40.10
29121;BME280;16191;49.548;8.658;2023-06-14T08:37:32;100186.25;;;23.46;38.32
29121;BME280;16191;49.548;8.658;2023-06-14T08:40:00;100188.81;;;23.75;39.28
29121;BME280;16191;49.548;8.658;2023-06-14T08:42:28;100189.53;;;23.95;38.78
29121;BME280;16191;49.548;8.658;2023-06-14T08:44:58;100189.56;;;24.13;38.55
29121;BME280;16191;49.548;8.658;2023-06-14T08:47:26;100192.88;;;23.97;39.15
29121;BME280;16191;49.548;8.658;2023-06-14T08:49:54;100193.28;;;24.02;37.58
29121;BME280;16191;49.548;8.658;2023-06-14T08:52:25;100187.16;;;24.37;38.18
29121;BME280;16191;49.548;8.658;2023-06-14T08:54:57;100187.44;;;24.70;37.61
29121;BME280;16191;49.548;8.658;2023-06-14T08:57:24;100197.06;;;24.27;35.94
29121;BME280;16191;49.548;8.658;2023-06-14T08:59:52;100195.00;;;24.56;36.14
29121;BME280;16191;49.548;8.658;2023-06-14T09:02:19;100191.03;;;24.60;35.65
29121;BME280;16191;49.548;8.658;2023-06-14T09:04:48;100208.47;;;24.73;36.57
29121;BME280;16191;49.548;8.658;2023-06-14T09:07:18;100206.22;;;24.60;36.96
29121;BME280;16191;49.548;8.658;2023-06-14T09:09:45;100208.56;;;24.81;37.15
29121;BME280;16191;49.548;8.658;2023-06-14T09:12:31;100193.78;;;24.51;36.03
29121;BME280;16191;49.548;8.658;2023-06-14T09:14:58;100211.06;;;24.82;37.07
29121;BME280;16191;49.548;8.658;2023-06-14T09:17:25;100200.25;;;24.84;35.96
29121;BME280;16191;49.548;8.658;2023-06-14T09:19:55;100199.09;;;25.04;35.53
29121;BME280;16191;49.548;8.658;2023-06-14T09:22:22;100199.19;;;25.20;35.73
29121;BME280;16191;49.548;8.658;2023-06-14T09:24:48;100200.47;;;25.42;35.44
29121;BME280;16191;49.548;8.658;2023-06-14T09:27:15;100211.09;;;25.34;35.20
29121;BME280;16191;49.548;8.658;2023-06-14T09:29:42;100212.13;;;25.33;34.75
29121;BME280;16191;49.548;8.658;2023-06-14T09:32:09;100206.59;;;25.35;34.28
29121;BME280;16191;49.548;8.658;2023-06-14T09:34:36;100211.63;;;25.64;34.06
29121;BME280;16191;49.548;8.658;2023-06-14T09:37:03;100205.56;;;25.53;33.30
29121;BME280;16191;49.548;8.658;2023-06-14T09:39:31;100198.91;;;26.08;34.32
29121;BME280;16191;49.548;8.658;2023-06-14T09:41:57;100212.09;;;26.01;34.51
29121;BME280;16191;49.548;8.658;2023-06-14T09:44:25;100202.03;;;26.37;33.51
29121;BME280;16191;49.548;8.658;2023-06-14T09:46:56;100207.03;;;26.48;33.21
29121;BME280;16191;49.548;8.658;2023-06-14T09:49:22;100210.91;;;26.70;33.13
29121;BME280;16191;49.548;8.658;2023-06-14T09:51:51;100221.31;;;26.98;31.89
29121;BME280;16191;49.548;8.658;2023-06-14T09:54:22;100214.25;;;26.72;31.69
29121;BME280;16191;49.548;8.658;2023-06-14T09:56:51;100214.25;;;27.13;31.41
29121;BME280;16191;49.548;8.658;2023-06-14T09:59:26;100205.97;;;26.17;32.68
29121;BME280;16191;49.548;8.658;2023-06-14T10:01:57;100204.19;;;26.50;32.75
29121;BME280;16191;49.548;8.658;2023-06-14T10:04:27;100212.91;;;26.60;31.91
29121;BME280;16191;49.548;8.658;2023-06-14T10:06:55;100207.00;;;27.38;31.01
29121;BME280;16191;49.548;8.658;2023-06-14T10:09:22;100215.75;;;27.15;31.32
29121;BME280;16191;49.548;8.658;2023-06-14T10:11:50;100209.06;;;27.75;30.90
29121;BME280;16191;49.548;8.658;2023-06-14T10:14:17;100205.75;;;27.56;32.07
29121;BME280;16191;49.548;8.658;2023-06-14T10:16:56;100213.91;;;27.24;31.34
29121;BME280;16191;49.548;8.658;2023-06-14T10:19:33;100203.34;;;27.86;31.13
29121;BME280;16191;49.548;8.658;2023-06-14T10:22:09;100193.69;;;27.05;32.22
29121;BME280;16191;49.548;8.658;2023-06-14T10:24:42;100202.91;;;27.50;31.57
29121;BME280;16191;49.548;8.658;2023-06-14T10:27:09;100214.06;;;26.49;32.53
29121;BME280;16191;49.548;8.658;2023-06-14T10:32:21;100210.91;;;27.19;31.53
29121;BME280;16191;49.548;8.658;2023-06-14T10:34:57;100201.56;;;28.01;30.61
29121;BME280;16191;49.548;8.658;2023-06-14T10:37:24;100209.72;;;27.21;31.32
29121;BME280;16191;49.548;8.658;2023-06-14T10:39:51;100195.06;;;27.64;30.71
29121;BME280;16191;49.548;8.658;2023-06-14T10:42:19;100200.97;;;27.36;30.66
29121;BME280;16191;49.548;8.658;2023-06-14T10:44:55;100206.44;;;27.97;30.83
29121;BME280;16191;49.548;8.658;2023-06-14T10:47:31;100199.00;;;28.39;29.91
29121;BME280;16191;49.548;8.658;2023-06-14T10:52:28;100204.66;;;27.35;30.82
29121;BME280;16191;49.548;8.658;2023-06-14T10:57:25;100200.06;;;27.51;31.10
29121;BME280;16191;49.548;8.658;2023-06-14T10:59:52;100195.72;;;27.67;29.63
29121;BME280;16191;49.548;8.658;2023-06-14T11:04:50;100184.47;;;28.56;28.58
29121;BME280;16191;49.548;8.658;2023-06-14T11:12:41;100193.78;;;30.09;26.08
29121;BME280;16191;49.548;8.658;2023-06-14T11:15:11;100194.91;;;29.11;27.54
29121;BME280;16191;49.548;8.658;2023-06-14T11:17:38;100194.06;;;28.50;28.43
29121;BME280;16191;49.548;8.658;2023-06-14T11:20:11;100185.28;;;29.17;28.09
29121;BME280;16191;49.548;8.658;2023-06-14T11:22:44;100198.84;;;29.53;27.42
29121;BME280;16191;49.548;8.658;2023-06-14T11:25:12;100196.94;;;29.24;27.82
29121;BME280;16191;49.548;8.658;2023-06-14T11:27:43;100191.56;;;29.68;27.83
29121;BME280;16191;49.548;8.658;2023-06-14T11:30:10;100197.94;;;29.08;27.95
29121;BME280;16191;49.548;8.658;2023-06-14T11:32:37;100199.13;;;28.68;28.79
29121;BME280;16191;49.548;8.658;2023-06-14T11:35:05;100192.84;;;28.98;27.99
29121;BME280;16191;49.548;8.658;2023-06-14T11:37:32;100192.47;;;29.02;27.94
29121;BME280;16191;49.548;8.658;2023-06-14T11:40:02;100196.47;;;28.14;29.36
29121;BME280;16191;49.548;8.658;2023-06-14T11:42:31;100196.75;;;28.27;30.32
29121;BME280;16191;49.548;8.658;2023-06-14T11:44:58;100199.91;;;29.14;29.19
29121;BME280;16191;49.548;8.658;2023-06-14T11:47:35;100190.66;;;29.31;28.82
29121;BME280;16191;49.548;8.658;2023-06-14T11:50:03;100197.00;;;29.89;28.56
29121;BME280;16191;49.548;8.658;2023-06-14T11:52:31;100195.06;;;29.10;28.91
29121;BME280;16191;49.548;8.658;2023-06-14T11:54:58;100184.16;;;30.85;26.70
29121;BME280;16191;49.548;8.658;2023-06-14T11:57:25;100181.94;;;29.74;27.50
29121;BME280;16191;49.548;8.658;2023-06-14T11:59:54;100179.00;;;29.54;27.54
29121;BME280;16191;49.548;8.658;2023-06-14T12:02:21;100187.63;;;30.15;26.75
29121;BME280;16191;49.548;8.658;2023-06-14T12:04:50;100188.31;;;29.87;27.24
29121;BME280;16191;49.548;8.658;2023-06-14T12:07:18;100185.09;;;29.18;27.46
29121;BME280;16191;49.548;8.658;2023-06-14T12:12:25;100187.84;;;29.10;27.14
29121;BME280;16191;49.548;8.658;2023-06-14T12:14:54;100186.06;;;29.03;27.90
29121;BME280;16191;49.548;8.658;2023-06-14T12:17:22;100193.94;;;28.66;28.73
29121;BME280;16191;49.548;8.658;2023-06-14T12:19:50;100179.56;;;28.82;28.25
29121;BME280;16191;49.548;8.658;2023-06-14T12:22:17;100194.81;;;28.82;28.01
29121;BME280;16191;49.548;8.658;2023-06-14T12:25:08;100184.91;;;30.15;26.89
29121;BME280;16191;49.548;8.658;2023-06-14T12:27:39;100184.56;;;29.52;27.64
29121;BME280;16191;49.548;8.658;2023-06-14T12:30:07;100179.97;;;29.82;27.13
29121;BME280;16191;49.548;8.658;2023-06-14T12:32:34;100169.72;;;29.92;27.47
29121;BME280;16191;49.548;8.658;2023-06-14T12:35:01;100187.88;;;30.41;26.65
29121;BME280;16191;49.548;8.658;2023-06-14T12:37:28;100182.63;;;29.97;26.92
29121;BME280;16191;49.548;8.658;2023-06-14T12:39:55;100183.84;;;28.91;27.45
29121;BME280;16191;49.548;8.658;2023-06-14T12:42:22;100176.22;;;30.77;25.90
29121;BME280;16191;49.548;8.658;2023-06-14T12:44:49;100169.97;;;29.76;26.48
29121;BME280;16191;49.548;8.658;2023-06-14T12:47:15;100183.78;;;30.24;27.27
29121;BME280;16191;49.548;8.658;2023-06-14T12:49:42;100177.44;;;31.02;26.17
29121;BME280;16191;49.548;8.658;2023-06-14T12:52:09;100186.75;;;30.29;26.71
29121;BME280;16191;49.548;8.658;2023-06-14T12:54:35;100181.97;;;29.59;28.16
29121;BME280;16191;49.548;8.658;2023-06-14T12:57:07;100188.78;;;30.06;27.16
29121;BME280;16191;49.548;8.658;2023-06-14T12:59:34;100186.19;;;29.68;27.48
29121;BME280;16191;49.548;8.658;2023-06-14T13:02:14;100190.09;;;29.80;26.96
29121;BME280;16191;49.548;8.658;2023-06-14T13:04:41;100191.56;;;29.83;26.97
29121;BME280;16191;49.548;8.658;2023-06-14T13:07:08;100193.47;;;30.82;26.01
29121;BME280;16191;49.548;8.658;2023-06-14T13:09:37;100182.34;;;31.95;24.49
29121;BME280;16191;49.548;8.658;2023-06-14T13:12:04;100191.44;;;32.62;25.02
29121;BME280;16191;49.548;8.658;2023-06-14T13:14:31;100187.28;;;31.79;24.43
29121;BME280;16191;49.548;8.658;2023-06-14T13:16:58;100178.34;;;31.78;25.23
29121;BME280;16191;49.548;8.658;2023-06-14T13:19:25;100194.63;;;30.52;26.52
29121;BME280;16191;49.548;8.658;2023-06-14T13:21:52;100178.19;;;31.52;25.80